Time;durP1;ratioP1;P1;durP2;ratioP2;P2;SDS_P1;SDS_P2;PMS_P1;PMS_P2;Temp;Humidity;BMP_temperature;BMP_pressure;BME280_temperature;BME280_humidity;BME280_pressure;Samples;Min_cycle;Max_cycle;Signal;HPM_P1;HPM_P2
2023/12/09 00:00:52;;;;;;;28.97;14.43;;;;;;;;;;5027173;28;20217;-63
2023/12/09 00:03:19;;;;;;;28.33;14.53;;;;;;;;;;5039603;28;20311;-63
2023/12/09 00:05:46;;;;;;;31.03;15.30;;;;;;;;;;5039536;28;20200;-62
2023/12/09 00:08:13;;;;;;;35.13;16.77;;;;;;;;;;5033215;28;20674;-63
2023/12/09 00:10:42;;;;;;;33.50;16.70;;;;;;;;;;5036408;28;20208;-63
2023/12/09 00:13:09;;;;;;;29.60;16.00;;;;;;;;;;5044619;28;20234;-63
2023/12/09 00:15:36;;;;;;;27.10;15.40;;;;;;;;;;5045752;28;20644;-63
2023/12/09 00:18:03;;;;;;;32.03;16.63;;;;;;;;;;5046473;28;20239;-63
2023/12/09 00:20:30;;;;;;;35.60;16.57;;;;;;;;;;5046013;28;20666;-63
2023/12/09 00:22:57;;;;;;;30.93;17.20;;;;;;;;;;5039768;28;20203;-63
2023/12/09 00:25:25;;;;;;;33.23;16.80;;;;;;;;;;5046123;28;20207;-63
2023/12/09 00:27:53;;;;;;;27.90;15.23;;;;;;;;;;5044355;28;20212;-63
2023/12/09 00:30:21;;;;;;;29.33;15.40;;;;;;;;;;5045546;28;20211;-63
2023/12/09 00:32:48;;;;;;;26.73;14.30;;;;;;;;;;5046082;28;20239;-63
2023/12/09 00:35:15;;;;;;;28.33;14.60;;;;;;;;;;5028852;28;20204;-63
2023/12/09 00:37:42;;;;;;;26.23;14.10;;;;;;;;;;5037500;28;20235;-63
2023/12/09 00:40:09;;;;;;;31.37;14.50;;;;;;;;;;5034178;28;20693;-63
2023/12/09 00:42:36;;;;;;;30.00;14.23;;;;;;;;;;5026474;28;20200;-63
2023/12/09 00:45:05;;;;;;;27.83;14.87;;;;;;;;;;5037665;28;20214;-63
2023/12/09 00:47:32;;;;;;;27.80;15.37;;;;;;;;;;5028149;28;20216;-63
2023/12/09 00:49:59;;;;;;;27.43;14.23;;;;;;;;;;5041436;28;20215;-63
2023/12/09 00:52:26;;;;;;;30.33;14.73;;;;;;;;;;5045999;28;20314;-63
2023/12/09 00:54:53;;;;;;;31.40;14.77;;;;;;;;;;5040403;28;20473;-63
2023/12/09 00:57:22;;;;;;;30.53;15.63;;;;;;;;;;5042587;28;20207;-63
2023/12/09 00:59:49;;;;;;;28.07;15.77;;;;;;;;;;5044904;28;20291;-63
2023/12/09 01:02:17;;;;;;;34.03;16.77;;;;;;;;;;5040989;28;20352;-63
2023/12/09 01:04:45;;;;;;;28.57;15.07;;;;;;;;;;5045638;28;20826;-63
2023/12/09 01:07:12;;;;;;;30.53;15.57;;;;;;;;;;5042068;28;20919;-63
2023/12/09 01:09:39;;;;;;;32.33;14.57;;;;;;;;;;5045324;28;20207;-63
2023/12/09 01:12:06;;;;;;;29.73;14.40;;;;;;;;;;5039381;28;20236;-63
2023/12/09 01:14:34;;;;;;;31.23;15.10;;;;;;;;;;5036849;28;20221;-64
2023/12/09 01:17:01;;;;;;;29.00;15.20;;;;;;;;;;5029660;28;20254;-63
2023/12/09 01:19:29;;;;;;;25.67;14.27;;;;;;;;;;5026044;28;20217;-63
2023/12/09 01:21:56;;;;;;;25.47;13.77;;;;;;;;;;5031768;28;20211;-63
2023/12/09 01:24:23;;;;;;;37.03;15.10;;;;;;;;;;5045198;28;20209;-63
2023/12/09 01:26:51;;;;;;;30.83;15.03;;;;;;;;;;5044171;28;20207;-63
2023/12/09 01:29:18;;;;;;;29.77;15.23;;;;;;;;;;5045157;28;20202;-63
2023/12/09 01:31:45;;;;;;;31.10;15.27;;;;;;;;;;5036429;28;20310;-63
2023/12/09 01:34:12;;;;;;;29.07;15.37;;;;;;;;;;5031804;28;20208;-63
2023/12/09 01:36:40;;;;;;;32.07;15.93;;;;;;;;;;5045221;28;20218;-63
2023/12/09 01:39:09;;;;;;;33.83;15.50;;;;;;;;;;5039146;28;20204;-64
2023/12/09 01:41:37;;;;;;;27.73;14.47;;;;;;;;;;5025736;28;20222;-63
2023/12/09 01:44:04;;;;;;;28.93;15.67;;;;;;;;;;5025553;28;20930;-63
2023/12/09 01:46:31;;;;;;;27.00;14.50;;;;;;;;;;5040995;28;20209;-63
2023/12/09 01:48:58;;;;;;;29.87;14.00;;;;;;;;;;5045447;28;20218;-63
2023/12/09 01:51:27;;;;;;;30.57;14.90;;;;;;;;;;5044823;28;20215;-63
2023/12/09 01:53:55;;;;;;;28.63;15.13;;;;;;;;;;5029848;28;20228;-63
2023/12/09 01:56:23;;;;;;;26.30;14.47;;;;;;;;;;5031448;28;20215;-63
2023/12/09 01:58:50;;;;;;;29.03;14.87;;;;;;;;;;5025447;28;20199;-63
2023/12/09 02:01:18;;;;;;;26.80;14.60;;;;;;;;;;5030051;28;20224;-63
2023/12/09 02:03:48;;;;;;;30.50;15.67;;;;;;;;;;5043862;28;20203;-63
2023/12/09 02:06:16;;;;;;;31.87;15.43;;;;;;;;;;5043099;28;20213;-63
2023/12/09 02:08:43;;;;;;;33.40;15.73;;;;;;;;;;5043317;28;20848;-63
2023/12/09 02:11:17;;;;;;;36.53;16.30;;;;;;;;;;5045580;28;20196;-63
2023/12/09 02:13:51;;;;;;;32.50;15.90;;;;;;;;;;5033630;28;20252;-64
2023/12/09 02:16:20;;;;;;;44.60;18.70;;;;;;;;;;5034587;28;20218;-63
2023/12/09 02:18:48;;;;;;;38.03;17.60;;;;;;;;;;5029804;28;20215;-63
2023/12/09 02:21:15;;;;;;;40.93;18.07;;;;;;;;;;5029010;28;20204;-62
2023/12/09 02:23:43;;;;;;;34.70;16.40;;;;;;;;;;5043934;28;20284;-63
2023/12/09 02:26:15;;;;;;;28.50;14.60;;;;;;;;;;5043118;28;20207;-63
2023/12/09 02:28:45;;;;;;;30.00;13.93;;;;;;;;;;5046565;28;20208;-63
2023/12/09 02:31:14;;;;;;;27.53;15.17;;;;;;;;;;5044504;28;20219;-63
2023/12/09 02:33:43;;;;;;;30.90;14.63;;;;;;;;;;5043895;28;20291;-63
2023/12/09 02:36:10;;;;;;;29.93;15.33;;;;;;;;;;5048128;28;20224;-63
2023/12/09 02:38:38;;;;;;;33.23;15.07;;;;;;;;;;5048478;28;20211;-63
2023/12/09 02:41:07;;;;;;;39.73;17.23;;;;;;;;;;5048028;28;20203;-63
2023/12/09 02:43:34;;;;;;;30.87;15.73;;;;;;;;;;5042431;28;20209;-63
2023/12/09 02:46:01;;;;;;;27.03;14.80;;;;;;;;;;5039001;28;20208;-63
2023/12/09 02:48:28;;;;;;;28.77;15.47;;;;;;;;;;5039010;28;20207;-63
2023/12/09 02:50:55;;;;;;;36.90;16.23;;;;;;;;;;5040824;28;20679;-63
2023/12/09 02:53:22;;;;;;;32.03;16.33;;;;;;;;;;5045280;28;20238;-63
2023/12/09 02:55:49;;;;;;;35.47;16.10;;;;;;;;;;5034793;28;20204;-63
2023/12/09 02:58:18;;;;;;;32.27;15.63;;;;;;;;;;5048386;28;20288;-63
2023/12/09 03:00:45;;;;;;;32.10;16.17;;;;;;;;;;5044671;28;20227;-63
2023/12/09 03:03:12;;;;;;;28.53;15.30;;;;;;;;;;5040094;28;20219;-63
2023/12/09 03:05:39;;;;;;;28.13;15.37;;;;;;;;;;5041907;28;20210;-62
2023/12/09 03:08:06;;;;;;;31.73;14.97;;;;;;;;;;5031241;28;20550;-63
2023/12/09 03:10:33;;;;;;;33.70;15.90;;;;;;;;;;5032403;28;20204;-63
2023/12/09 03:13:00;;;;;;;31.40;15.17;;;;;;;;;;5047846;28;20228;-63
2023/12/09 03:15:28;;;;;;;29.27;14.90;;;;;;;;;;5044927;28;20245;-63
2023/12/09 03:17:55;;;;;;;28.73;14.97;;;;;;;;;;5045467;28;20245;-63
2023/12/09 03:20:24;;;;;;;28.10;15.43;;;;;;;;;;5047325;28;20204;-63
2023/12/09 03:22:51;;;;;;;36.17;15.27;;;;;;;;;;5036159;28;20206;-63
2023/12/09 03:25:18;;;;;;;32.00;15.63;;;;;;;;;;5044332;28;20214;-63
2023/12/09 03:27:45;;;;;;;33.63;15.67;;;;;;;;;;5047890;28;20579;-63
2023/12/09 03:30:12;;;;;;;38.53;16.70;;;;;;;;;;5034462;28;20208;-63
2023/12/09 03:32:44;;;;;;;34.43;17.40;;;;;;;;;;5033111;28;20283;-63
2023/12/09 03:35:12;;;;;;;36.87;15.83;;;;;;;;;;5046476;28;20213;-63
2023/12/09 03:37:39;;;;;;;28.73;15.37;;;;;;;;;;5041858;28;20203;-63
2023/12/09 03:40:07;;;;;;;34.17;16.27;;;;;;;;;;5038766;28;20706;-63
2023/12/09 03:42:34;;;;;;;30.57;15.47;;;;;;;;;;5029825;28;20221;-63
2023/12/09 03:45:01;;;;;;;32.70;15.80;;;;;;;;;;5028070;28;20584;-63
2023/12/09 03:47:28;;;;;;;34.17;16.37;;;;;;;;;;5031049;28;20209;-64
2023/12/09 03:49:56;;;;;;;35.40;16.70;;;;;;;;;;5042409;28;20203;-63
2023/12/09 03:52:23;;;;;;;30.80;17.17;;;;;;;;;;5044866;28;20203;-63
2023/12/09 03:54:50;;;;;;;36.53;17.13;;;;;;;;;;5046457;28;20597;-63
2023/12/09 03:57:17;;;;;;;36.97;17.40;;;;;;;;;;5032607;28;20216;-63
2023/12/09 03:59:44;;;;;;;36.97;16.57;;;;;;;;;;5028330;28;20745;-63
2023/12/09 04:02:11;;;;;;;35.30;16.53;;;;;;;;;;5037945;28;20207;-63
2023/12/09 04:04:39;;;;;;;34.43;16.50;;;;;;;;;;5036644;28;20204;-63
2023/12/09 04:07:07;;;;;;;37.80;17.37;;;;;;;;;;5036435;28;20204;-63
2023/12/09 04:09:34;;;;;;;42.77;17.33;;;;;;;;;;5033027;28;20212;-63
2023/12/09 04:12:01;;;;;;;35.70;16.93;;;;;;;;;;5037573;28;20616;-63
2023/12/09 04:14:28;;;;;;;36.33;17.00;;;;;;;;;;5045653;28;20232;-63
2023/12/09 04:16:55;;;;;;;50.10;18.23;;;;;;;;;;5030275;28;20263;-63
2023/12/09 04:19:23;;;;;;;38.13;17.93;;;;;;;;;;5028031;28;20560;-63
2023/12/09 04:21:51;;;;;;;44.90;17.40;;;;;;;;;;5036319;28;20203;-63
2023/12/09 04:24:19;;;;;;;42.40;18.13;;;;;;;;;;5044330;28;20207;-63
2023/12/09 04:26:47;;;;;;;40.33;18.17;;;;;;;;;;5044959;28;20203;-63
2023/12/09 04:29:14;;;;;;;40.60;18.47;;;;;;;;;;5030935;28;20206;-63
2023/12/09 04:31:42;;;;;;;50.53;18.47;;;;;;;;;;5042425;28;20251;-63
2023/12/09 04:34:10;;;;;;;39.27;17.30;;;;;;;;;;5044549;28;20228;-63
2023/12/09 04:36:37;;;;;;;42.87;17.90;;;;;;;;;;5044258;28;20211;-63
2023/12/09 04:39:05;;;;;;;45.47;18.63;;;;;;;;;;5046080;28;20207;-63
2023/12/09 04:41:33;;;;;;;43.33;17.70;;;;;;;;;;5039187;28;20269;-63
2023/12/09 04:44:00;;;;;;;39.67;17.00;;;;;;;;;;5028296;28;20210;-63
2023/12/09 04:46:27;;;;;;;44.07;18.13;;;;;;;;;;5038845;28;20999;-63
2023/12/09 04:48:54;;;;;;;37.90;17.17;;;;;;;;;;5029426;28;20214;-63
2023/12/09 04:51:21;;;;;;;45.90;19.27;;;;;;;;;;5027768;28;20215;-63
2023/12/09 04:53:48;;;;;;;38.40;17.53;;;;;;;;;;5043422;28;20234;-63
2023/12/09 04:56:15;;;;;;;46.63;18.57;;;;;;;;;;5028234;28;20209;-63
2023/12/09 04:58:43;;;;;;;46.33;19.27;;;;;;;;;;5026921;28;20212;-63
2023/12/09 05:01:10;;;;;;;47.37;19.40;;;;;;;;;;5029657;28;20200;-63
2023/12/09 05:03:37;;;;;;;53.50;19.93;;;;;;;;;;5044789;28;20212;-63
2023/12/09 05:06:04;;;;;;;51.57;20.97;;;;;;;;;;5041012;28;20208;-63
2023/12/09 05:08:31;;;;;;;47.43;20.47;;;;;;;;;;5029570;28;20283;-63
2023/12/09 05:10:59;;;;;;;54.67;21.47;;;;;;;;;;5026347;28;20216;-63
2023/12/09 05:13:26;;;;;;;61.27;22.77;;;;;;;;;;5037009;28;20227;-63
2023/12/09 05:15:55;;;;;;;65.17;22.73;;;;;;;;;;5039084;28;20223;-62
2023/12/09 05:18:22;;;;;;;59.77;22.23;;;;;;;;;;5039712;28;20239;-63
2023/12/09 05:20:49;;;;;;;62.70;20.57;;;;;;;;;;5037733;28;20213;-63
2023/12/09 05:23:16;;;;;;;58.87;20.80;;;;;;;;;;5029750;28;20595;-63
2023/12/09 05:25:44;;;;;;;60.77;19.10;;;;;;;;;;5032839;28;20204;-63
2023/12/09 05:28:11;;;;;;;60.40;19.37;;;;;;;;;;5026124;28;20479;-63
2023/12/09 05:30:38;;;;;;;51.60;19.67;;;;;;;;;;5038395;28;20729;-63
2023/12/09 05:33:10;;;;;;;57.87;18.17;;;;;;;;;;5035065;28;20209;-62
2023/12/09 05:35:37;;;;;;;54.37;17.37;;;;;;;;;;5044948;28;20218;-63
2023/12/09 05:38:04;;;;;;;51.20;19.07;;;;;;;;;;5041875;28;20688;-63
2023/12/09 05:40:31;;;;;;;53.50;17.27;;;;;;;;;;5041179;28;20250;-63
2023/12/09 05:42:58;;;;;;;49.87;18.97;;;;;;;;;;5035121;28;20251;-62
2023/12/09 05:45:25;;;;;;;45.07;18.63;;;;;;;;;;5042260;28;20207;-63
2023/12/09 05:47:52;;;;;;;62.20;18.47;;;;;;;;;;5042837;28;20219;-62
2023/12/09 05:50:20;;;;;;;78.87;18.60;;;;;;;;;;5044868;28;20628;-63
2023/12/09 05:52:47;;;;;;;61.77;18.00;;;;;;;;;;5040615;28;20212;-62
2023/12/09 05:55:16;;;;;;;109.10;20.30;;;;;;;;;;5039136;28;20224;-62
2023/12/09 05:57:43;;;;;;;68.27;19.27;;;;;;;;;;5032125;28;20306;-63
2023/12/09 06:00:11;;;;;;;72.13;17.90;;;;;;;;;;5042768;28;20290;-62
2023/12/09 06:02:38;;;;;;;53.47;18.40;;;;;;;;;;5039464;28;20560;-62
2023/12/09 06:05:05;;;;;;;50.27;17.77;;;;;;;;;;5031657;28;20670;-61
2023/12/09 06:07:34;;;;;;;71.00;18.47;;;;;;;;;;5039568;28;20214;-62
2023/12/09 06:10:01;;;;;;;53.70;18.07;;;;;;;;;;5044330;28;20215;-63
2023/12/09 06:12:28;;;;;;;43.07;17.80;;;;;;;;;;5036816;28;20207;-62
2023/12/09 06:14:55;;;;;;;40.20;18.47;;;;;;;;;;5044082;28;20234;-62
2023/12/09 06:17:22;;;;;;;45.53;17.93;;;;;;;;;;5043586;28;20235;-63
2023/12/09 06:19:49;;;;;;;46.07;17.50;;;;;;;;;;5034212;28;20207;-62
2023/12/09 06:22:16;;;;;;;50.93;17.07;;;;;;;;;;5025012;28;20219;-62
2023/12/09 06:24:45;;;;;;;73.27;16.97;;;;;;;;;;5024810;28;20200;-62
2023/12/09 06:27:13;;;;;;;63.97;18.20;;;;;;;;;;5024840;28;21027;-62
2023/12/09 06:29:40;;;;;;;49.80;18.20;;;;;;;;;;5037614;28;20294;-62
2023/12/09 06:32:07;;;;;;;45.03;17.83;;;;;;;;;;5036028;28;20216;-62
2023/12/09 06:34:34;;;;;;;47.70;17.47;;;;;;;;;;5039180;28;20596;-62
2023/12/09 06:37:01;;;;;;;51.80;18.33;;;;;;;;;;5035313;28;20208;-62
2023/12/09 06:39:28;;;;;;;41.57;18.30;;;;;;;;;;5031091;28;20208;-62
2023/12/09 06:41:56;;;;;;;44.53;19.13;;;;;;;;;;5034749;28;20573;-62
2023/12/09 06:44:23;;;;;;;43.37;18.03;;;;;;;;;;5041195;28;20207;-62
2023/12/09 06:46:50;;;;;;;42.80;18.77;;;;;;;;;;5045573;28;20290;-62
2023/12/09 06:49:18;;;;;;;42.60;18.30;;;;;;;;;;5043889;28;20216;-62
2023/12/09 06:51:45;;;;;;;40.00;18.17;;;;;;;;;;5046046;28;20230;-62
2023/12/09 06:54:12;;;;;;;37.27;17.00;;;;;;;;;;5040605;28;20224;-62
2023/12/09 06:56:39;;;;;;;35.20;17.07;;;;;;;;;;5030806;28;20219;-62
2023/12/09 06:59:08;;;;;;;42.83;17.57;;;;;;;;;;5042119;28;20207;-62
2023/12/09 07:01:35;;;;;;;38.10;17.83;;;;;;;;;;5033982;28;20645;-62
2023/12/09 07:04:02;;;;;;;35.07;16.83;;;;;;;;;;5043314;28;20204;-62
2023/12/09 07:06:29;;;;;;;36.23;16.93;;;;;;;;;;5031776;28;20310;-62
2023/12/09 07:08:57;;;;;;;46.23;18.67;;;;;;;;;;5043607;28;20288;-62
2023/12/09 07:11:24;;;;;;;39.60;17.77;;;;;;;;;;5041704;28;20457;-63
2023/12/09 07:13:51;;;;;;;38.33;17.40;;;;;;;;;;5038996;28;20752;-62
2023/12/09 07:16:20;;;;;;;42.53;18.60;;;;;;;;;;5029015;28;20482;-63
2023/12/09 07:18:47;;;;;;;38.13;18.60;;;;;;;;;;5045370;28;20196;-63
2023/12/09 07:21:14;;;;;;;36.63;17.37;;;;;;;;;;5032017;28;20902;-63
2023/12/09 07:23:41;;;;;;;37.40;17.67;;;;;;;;;;5027968;28;20671;-63
2023/12/09 07:26:08;;;;;;;35.13;17.23;;;;;;;;;;5042704;28;20837;-63
2023/12/09 07:28:35;;;;;;;31.83;16.77;;;;;;;;;;5027546;28;20209;-63
2023/12/09 07:31:03;;;;;;;35.63;17.57;;;;;;;;;;5037668;28;20232;-63
2023/12/09 07:33:31;;;;;;;37.37;19.03;;;;;;;;;;5043120;28;20273;-62
2023/12/09 07:35:58;;;;;;;39.00;18.77;;;;;;;;;;5047003;28;20223;-63
2023/12/09 07:38:25;;;;;;;33.30;17.00;;;;;;;;;;5044915;28;20231;-63
2023/12/09 07:40:52;;;;;;;24.63;14.40;;;;;;;;;;5046954;28;20210;-63
2023/12/09 07:43:19;;;;;;;29.10;15.57;;;;;;;;;;5036696;28;20212;-63
2023/12/09 07:45:47;;;;;;;32.07;16.67;;;;;;;;;;5040978;28;20689;-63
2023/12/09 07:48:14;;;;;;;30.53;17.00;;;;;;;;;;5041272;28;20200;-63
2023/12/09 07:50:43;;;;;;;36.47;18.33;;;;;;;;;;5031498;28;20212;-62
2023/12/09 07:53:10;;;;;;;26.63;15.10;;;;;;;;;;5042138;28;20208;-63
2023/12/09 07:55:37;;;;;;;31.00;16.40;;;;;;;;;;5036889;28;20330;-63
2023/12/09 07:58:04;;;;;;;30.23;15.60;;;;;;;;;;5046042;28;20215;-65
2023/12/09 08:00:31;;;;;;;158.27;28.90;;;;;;;;;;5034560;28;20207;-62
2023/12/09 08:03:03;;;;;;;26.77;14.63;;;;;;;;;;5045355;28;20265;-62
2023/12/09 08:05:30;;;;;;;25.10;14.27;;;;;;;;;;5044701;28;20211;-64
2023/12/09 08:07:58;;;;;;;22.07;14.13;;;;;;;;;;5033609;28;20206;-63
2023/12/09 08:10:25;;;;;;;27.80;13.93;;;;;;;;;;5044792;28;20666;-63
2023/12/09 08:12:52;;;;;;;24.63;13.20;;;;;;;;;;5035132;28;20211;-64
2023/12/09 08:15:19;;;;;;;25.70;13.17;;;;;;;;;;5039957;28;20637;-62
2023/12/09 08:17:46;;;;;;;22.83;12.73;;;;;;;;;;5026530;28;20244;-62
2023/12/09 08:20:13;;;;;;;25.33;13.43;;;;;;;;;;5028121;28;20212;-66
2023/12/09 08:22:41;;;;;;;21.77;13.47;;;;;;;;;;5037631;28;20204;-62
2023/12/09 08:25:10;;;;;;;33.00;12.97;;;;;;;;;;5039785;28;20799;-63
2023/12/09 08:27:38;;;;;;;29.97;13.47;;;;;;;;;;5037813;28;20847;-62
2023/12/09 08:30:05;;;;;;;28.50;13.63;;;;;;;;;;5030526;28;20368;-62
2023/12/09 08:32:33;;;;;;;29.87;13.73;;;;;;;;;;5039555;28;20219;-62
2023/12/09 08:35:00;;;;;;;28.60;13.57;;;;;;;;;;5037472;28;20820;-63
2023/12/09 08:37:27;;;;;;;21.80;12.70;;;;;;;;;;5032011;28;20216;-62
2023/12/09 08:39:54;;;;;;;28.40;13.03;;;;;;;;;;5036215;28;20200;-66
2023/12/09 08:42:22;;;;;;;23.10;12.00;;;;;;;;;;5042310;28;20212;-63
2023/12/09 08:44:49;;;;;;;26.17;13.40;;;;;;;;;;5040399;28;20212;-63
2023/12/09 08:47:18;;;;;;;28.33;14.53;;;;;;;;;;5032960;28;20203;-65
2023/12/09 08:49:45;;;;;;;33.50;14.23;;;;;;;;;;5039502;28;20310;-63
2023/12/09 08:52:12;;;;;;;24.60;13.73;;;;;;;;;;5045996;28;20199;-63
2023/12/09 08:54:39;;;;;;;24.60;13.03;;;;;;;;;;5029084;28;20255;-63
2023/12/09 08:57:06;;;;;;;30.40;13.67;;;;;;;;;;5044264;28;20203;-62
2023/12/09 08:59:34;;;;;;;28.37;13.53;;;;;;;;;;5045203;28;20214;-62
2023/12/09 09:02:01;;;;;;;22.70;12.93;;;;;;;;;;5042932;28;20208;-62
2023/12/09 09:04:28;;;;;;;27.77;12.60;;;;;;;;;;5027817;28;20201;-62
2023/12/09 09:06:56;;;;;;;29.73;14.27;;;;;;;;;;5039464;28;20270;-63
2023/12/09 09:09:23;;;;;;;29.60;13.80;;;;;;;;;;5035988;28;20665;-63
2023/12/09 09:11:51;;;;;;;28.67;14.13;;;;;;;;;;5026810;28;20236;-62
2023/12/09 09:14:18;;;;;;;27.23;13.87;;;;;;;;;;5038320;28;20220;-62
2023/12/09 09:16:46;;;;;;;26.13;13.13;;;;;;;;;;5041483;28;20263;-63
2023/12/09 09:19:13;;;;;;;28.03;14.60;;;;;;;;;;5028429;28;20204;-63
2023/12/09 09:21:40;;;;;;;31.40;13.13;;;;;;;;;;5045646;28;20625;-62
2023/12/09 09:24:08;;;;;;;22.73;12.87;;;;;;;;;;5044058;28;20215;-63
2023/12/09 09:26:35;;;;;;;24.50;13.50;;;;;;;;;;5031443;28;20238;-64
2023/12/09 09:29:02;;;;;;;25.30;13.80;;;;;;;;;;5034980;28;20203;-65
2023/12/09 09:31:30;;;;;;;32.80;13.67;;;;;;;;;;5032036;28;20239;-63
2023/12/09 09:33:58;;;;;;;28.40;13.70;;;;;;;;;;5040781;28;20291;-63
2023/12/09 09:36:25;;;;;;;29.20;12.33;;;;;;;;;;5044403;28;20230;-62
2023/12/09 09:38:52;;;;;;;23.20;12.93;;;;;;;;;;5034084;28;20209;-61
2023/12/09 09:41:23;;;;;;;23.23;13.50;;;;;;;;;;5029839;28;20205;-66
2023/12/09 09:43:52;;;;;;;21.93;13.07;;;;;;;;;;5025634;28;20897;-60
2023/12/09 09:46:20;;;;;;;26.80;14.33;;;;;;;;;;5026092;28;20200;-61
2023/12/09 09:48:51;;;;;;;19.27;12.47;;;;;;;;;;5041286;28;20214;-61
2023/12/09 09:51:22;;;;;;;22.73;12.53;;;;;;;;;;5033314;28;20566;-63
2023/12/09 09:54:03;;;;;;;26.63;12.27;;;;;;;;;;5027516;28;20893;-61
2023/12/09 09:56:31;;;;;;;26.33;12.00;;;;;;;;;;5044108;28;20235;-62
2023/12/09 09:58:58;;;;;;;28.47;12.77;;;;;;;;;;5042171;28;20208;-60
2023/12/09 10:01:27;;;;;;;23.63;11.83;;;;;;;;;;5039162;28;20614;-61
2023/12/09 10:03:54;;;;;;;20.53;11.73;;;;;;;;;;5040665;28;20224;-61
2023/12/09 10:06:23;;;;;;;21.80;11.73;;;;;;;;;;5033324;28;20200;-62
2023/12/09 10:08:50;;;;;;;27.27;12.53;;;;;;;;;;5039995;28;20208;-62
2023/12/09 10:11:17;;;;;;;25.13;12.67;;;;;;;;;;5034035;28;20220;-61
2023/12/09 10:13:45;;;;;;;27.90;12.73;;;;;;;;;;5036873;28;20230;-62
2023/12/09 10:16:12;;;;;;;24.47;13.30;;;;;;;;;;5037029;28;20258;-61
2023/12/09 10:18:45;;;;;;;25.43;12.50;;;;;;;;;;5031478;28;20210;-61
2023/12/09 10:21:12;;;;;;;20.67;12.27;;;;;;;;;;5040411;28;20802;-61
2023/12/09 10:23:40;;;;;;;20.77;12.03;;;;;;;;;;5037500;28;20232;-61
2023/12/09 10:26:09;;;;;;;24.00;12.57;;;;;;;;;;5045968;28;20204;-62
2023/12/09 10:28:36;;;;;;;18.37;11.67;;;;;;;;;;5034568;28;20208;-62
2023/12/09 10:31:03;;;;;;;21.50;11.50;;;;;;;;;;5039276;28;20216;-62
2023/12/09 10:33:30;;;;;;;22.30;11.17;;;;;;;;;;5043364;28;20212;-62
2023/12/09 10:35:57;;;;;;;20.03;11.60;;;;;;;;;;5046619;28;20318;-62
2023/12/09 10:38:24;;;;;;;19.30;11.23;;;;;;;;;;5047862;28;20678;-62
2023/12/09 10:40:54;;;;;;;20.80;11.27;;;;;;;;;;5028722;28;20299;-61
2023/12/09 10:43:21;;;;;;;18.03;10.87;;;;;;;;;;5030334;28;20231;-62
2023/12/09 10:45:49;;;;;;;21.90;10.77;;;;;;;;;;5038608;28;20215;-62
2023/12/09 10:48:16;;;;;;;20.80;10.17;;;;;;;;;;5047826;28;20200;-67
2023/12/09 10:50:46;;;;;;;16.80;8.83;;;;;;;;;;5040098;28;20684;-63
2023/12/09 10:53:13;;;;;;;14.47;8.20;;;;;;;;;;5032852;28;20215;-70
2023/12/09 10:55:40;;;;;;;17.43;9.70;;;;;;;;;;5034083;28;20224;-67
2023/12/09 10:58:08;;;;;;;14.43;9.07;;;;;;;;;;5039611;28;20748;-62
2023/12/09 11:00:36;;;;;;;13.23;8.20;;;;;;;;;;5047437;28;20674;-62
2023/12/09 11:03:03;;;;;;;13.80;8.33;;;;;;;;;;5043249;28;20281;-63
2023/12/09 11:05:31;;;;;;;13.93;7.67;;;;;;;;;;5047625;28;20265;-63
2023/12/09 11:08:00;;;;;;;15.13;7.57;;;;;;;;;;5044180;28;20230;-63
2023/12/09 11:10:27;;;;;;;12.50;7.00;;;;;;;;;;5039065;28;20214;-64
2023/12/09 11:12:54;;;;;;;14.50;7.60;;;;;;;;;;5040012;28;20208;-66
2023/12/09 11:15:30;;;;;;;13.67;6.60;;;;;;;;;;5047689;28;20211;-62
2023/12/09 11:18:07;;;;;;;13.67;6.90;;;;;;;;;;5040681;28;20255;-65
2023/12/09 11:20:34;;;;;;;11.47;6.07;;;;;;;;;;5041378;28;20728;-63
2023/12/09 11:23:02;;;;;;;12.80;6.63;;;;;;;;;;5047506;28;20235;-65
2023/12/09 11:25:30;;;;;;;10.43;6.03;;;;;;;;;;5047256;28;20222;-64
2023/12/09 11:27:58;;;;;;;12.57;6.27;;;;;;;;;;5041461;28;20564;-61
2023/12/09 11:30:34;;;;;;;10.27;6.80;;;;;;;;;;5046985;28;20207;-68
2023/12/09 11:33:01;;;;;;;11.47;6.83;;;;;;;;;;5046125;28;20231;-61
2023/12/09 11:35:29;;;;;;;12.03;6.80;;;;;;;;;;5046796;28;20235;-62
2023/12/09 11:37:58;;;;;;;10.50;6.67;;;;;;;;;;5044381;28;20216;-64
2023/12/09 11:40:25;;;;;;;17.07;6.63;;;;;;;;;;5046418;28;20208;-60
2023/12/09 11:42:52;;;;;;;12.23;6.57;;;;;;;;;;5047827;28;20211;-64
2023/12/09 11:45:21;;;;;;;11.97;6.60;;;;;;;;;;5041351;28;20196;-64
2023/12/09 11:47:50;;;;;;;8.50;6.20;;;;;;;;;;5031315;28;20204;-64
2023/12/09 11:50:18;;;;;;;10.13;6.50;;;;;;;;;;5044443;28;20192;-63
2023/12/09 11:52:45;;;;;;;10.43;6.73;;;;;;;;;;5037065;28;20214;-63
2023/12/09 11:55:12;;;;;;;11.60;5.93;;;;;;;;;;5040277;28;20204;-65
2023/12/09 11:57:40;;;;;;;11.33;6.53;;;;;;;;;;5035593;28;20204;-64
2023/12/09 12:00:11;;;;;;;13.20;6.23;;;;;;;;;;5044585;28;20222;-65
2023/12/09 12:02:39;;;;;;;11.93;6.93;;;;;;;;;;5038065;28;20311;-66
2023/12/09 12:05:08;;;;;;;10.57;6.40;;;;;;;;;;5044238;28;20230;-65
2023/12/09 12:07:36;;;;;;;10.30;6.63;;;;;;;;;;5032835;28;20232;-63
2023/12/09 12:10:03;;;;;;;10.53;5.70;;;;;;;;;;5030555;28;20201;-66
2023/12/09 12:12:30;;;;;;;9.67;5.73;;;;;;;;;;5048228;28;20302;-66
2023/12/09 12:14:57;;;;;;;7.33;4.87;;;;;;;;;;5046749;28;20207;-65
2023/12/09 12:17:24;;;;;;;10.70;6.27;;;;;;;;;;5041792;28;20667;-66
2023/12/09 12:19:51;;;;;;;8.97;6.27;;;;;;;;;;5037685;28;20212;-65
2023/12/09 12:22:20;;;;;;;7.73;5.67;;;;;;;;;;5041270;28;20232;-65
2023/12/09 12:24:47;;;;;;;8.80;6.17;;;;;;;;;;5027010;28;20302;-64
2023/12/09 12:27:14;;;;;;;8.57;5.80;;;;;;;;;;5028465;28;20211;-64
2023/12/09 12:29:42;;;;;;;7.83;5.90;;;;;;;;;;5038208;28;20231;-63
2023/12/09 12:32:09;;;;;;;9.60;6.07;;;;;;;;;;5042431;28;20256;-63
2023/12/09 12:34:36;;;;;;;10.63;5.83;;;;;;;;;;5029475;28;20223;-63
2023/12/09 12:37:04;;;;;;;7.67;5.23;;;;;;;;;;5035438;28;20232;-63
2023/12/09 12:39:32;;;;;;;9.23;5.67;;;;;;;;;;5040984;28;20204;-65
2023/12/09 12:41:59;;;;;;;8.80;5.97;;;;;;;;;;5040204;28;20215;-64
2023/12/09 12:44:27;;;;;;;8.77;5.97;;;;;;;;;;5038204;28;20206;-64
2023/12/09 12:46:54;;;;;;;7.97;5.83;;;;;;;;;;5030457;28;20205;-63
2023/12/09 12:49:21;;;;;;;11.57;6.10;;;;;;;;;;5029359;28;20944;-64
2023/12/09 12:51:50;;;;;;;8.13;5.80;;;;;;;;;;5040961;28;20200;-63
2023/12/09 12:54:17;;;;;;;12.07;5.43;;;;;;;;;;5046244;28;20227;-62
2023/12/09 12:56:45;;;;;;;11.57;5.50;;;;;;;;;;5045900;28;20223;-62
2023/12/09 12:59:13;;;;;;;12.73;5.63;;;;;;;;;;5043060;28;20215;-63
2023/12/09 13:01:40;;;;;;;7.40;4.77;;;;;;;;;;5041607;28;20231;-63
2023/12/09 13:04:07;;;;;;;9.87;3.50;;;;;;;;;;5040666;28;20208;-63
2023/12/09 13:06:34;;;;;;;6.07;4.00;;;;;;;;;;5039520;28;20211;-62
2023/12/09 13:09:03;;;;;;;7.57;4.43;;;;;;;;;;5044296;28;20258;-63
2023/12/09 13:11:30;;;;;;;7.97;4.57;;;;;;;;;;5028800;28;20212;-64
2023/12/09 13:13:59;;;;;;;4.83;4.20;;;;;;;;;;5044459;28;20212;-63
2023/12/09 13:16:27;;;;;;;8.80;4.93;;;;;;;;;;5027917;28;20244;-63
2023/12/09 13:18:54;;;;;;;6.53;4.63;;;;;;;;;;5040036;28;20204;-63
2023/12/09 13:21:21;;;;;;;4.53;3.80;;;;;;;;;;5033601;28;20213;-64
2023/12/09 13:23:48;;;;;;;4.53;3.80;;;;;;;;;;5027028;28;20232;-63
2023/12/09 13:26:15;;;;;;;6.57;3.37;;;;;;;;;;5026776;28;20204;-63
2023/12/09 13:28:43;;;;;;;3.60;3.40;;;;;;;;;;5028679;28;20662;-63
2023/12/09 13:31:13;;;;;;;4.63;3.03;;;;;;;;;;5045560;28;21032;-64
2023/12/09 13:33:40;;;;;;;5.73;3.37;;;;;;;;;;5037038;28;20273;-63
2023/12/09 13:36:09;;;;;;;4.07;3.13;;;;;;;;;;5035478;28;20752;-63
2023/12/09 13:38:36;;;;;;;4.07;3.67;;;;;;;;;;5034792;28;20663;-63
2023/12/09 13:41:03;;;;;;;3.90;3.13;;;;;;;;;;5045445;28;20211;-64
2023/12/09 13:43:30;;;;;;;6.23;3.60;;;;;;;;;;5044121;28;20227;-63
2023/12/09 13:45:57;;;;;;;5.20;3.43;;;;;;;;;;5039846;28;20197;-63
2023/12/09 13:48:26;;;;;;;6.87;3.20;;;;;;;;;;5043529;28;20223;-63
2023/12/09 13:50:53;;;;;;;4.03;3.33;;;;;;;;;;5041771;28;20331;-63
2023/12/09 13:53:21;;;;;;;3.93;3.63;;;;;;;;;;5026143;28;20592;-64
2023/12/09 13:55:48;;;;;;;5.60;3.33;;;;;;;;;;5039386;28;20856;-63
2023/12/09 13:58:15;;;;;;;8.27;3.27;;;;;;;;;;5029923;28;20243;-63
2023/12/09 14:00:42;;;;;;;4.13;3.17;;;;;;;;;;5042700;28;20219;-63
2023/12/09 14:03:09;;;;;;;3.50;2.90;;;;;;;;;;5035599;28;20216;-63
2023/12/09 14:05:38;;;;;;;8.20;3.30;;;;;;;;;;5029658;28;20208;-63
2023/12/09 14:08:05;;;;;;;8.10;3.53;;;;;;;;;;5045288;28;20212;-63
2023/12/09 14:10:32;;;;;;;6.07;3.80;;;;;;;;;;5045161;28;20224;-64
2023/12/09 14:12:59;;;;;;;4.20;2.00;;;;;;;;;;5048725;28;20216;-65
2023/12/09 14:15:27;;;;;;;5.03;2.97;;;;;;;;;;5047388;28;20207;-62
2023/12/09 14:17:55;;;;;;;6.00;2.00;;;;;;;;;;5030911;28;20244;-63
2023/12/09 14:20:22;;;;;;;2.80;2.60;;;;;;;;;;5046588;28;20391;-63
2023/12/09 14:22:50;;;;;;;3.57;2.33;;;;;;;;;;5039100;28;20678;-62